createdAt,value
2023-04-16T00:02:43.979Z,6.38
2023-04-16T00:05:32.524Z,8.07
2023-04-16T00:08:24.241Z,8.95
2023-04-16T00:11:12.816Z,10.90
2023-04-16T00:14:01.018Z,4.50
2023-04-16T00:16:49.454Z,6.00
2023-04-16T00:19:38.788Z,5.40
2023-04-16T00:22:27.233Z,8.63
2023-04-16T00:25:16.906Z,9.07
2023-04-16T00:28:06.080Z,4.37
2023-04-16T00:30:54.571Z,7.38
2023-04-16T00:33:42.860Z,6.22
2023-04-16T00:36:31.416Z,6.97
2023-04-16T00:39:23.485Z,5.20
2023-04-16T00:42:12.983Z,6.97
2023-04-16T00:45:01.298Z,4.88
2023-04-16T00:47:49.470Z,5.43
2023-04-16T00:50:37.639Z,4.75
2023-04-16T00:53:26.666Z,7.78
2023-04-16T00:56:15.072Z,6.03
2023-04-16T00:59:05.052Z,7.03
2023-04-16T01:01:53.254Z,6.07
2023-04-16T01:04:41.673Z,8.07
2023-04-16T01:07:29.855Z,5.25
2023-04-16T01:10:18.170Z,5.93
2023-04-16T01:13:06.238Z,5.57
2023-04-16T01:15:55.888Z,7.03
2023-04-16T01:18:44.003Z,8.73
2023-04-16T01:21:33.470Z,5.32
2023-04-16T01:24:21.675Z,8.17
2023-04-16T01:27:10.066Z,5.93
2023-04-16T01:29:58.132Z,9.75
2023-04-16T01:32:46.497Z,5.13
2023-04-16T01:35:34.599Z,6.68
2023-04-16T01:38:24.071Z,10.30
2023-04-16T01:41:12.154Z,8.88
2023-04-16T01:44:00.262Z,6.03
2023-04-16T01:46:48.857Z,7.63
2023-04-16T01:49:37.498Z,8.27
2023-04-16T01:52:25.940Z,6.37
2023-04-16T01:55:15.827Z,5.95
2023-04-16T01:58:04.352Z,8.82
2023-04-16T02:00:52.442Z,14.07
2023-04-16T02:03:41.633Z,6.38
2023-04-16T02:06:30.623Z,8.07
2023-04-16T02:09:18.821Z,7.80
2023-04-16T02:12:11.275Z,8.82
2023-04-16T02:14:59.457Z,6.55
2023-04-16T02:17:48.881Z,4.88
2023-04-16T02:20:40.649Z,4.43
2023-04-16T02:23:29.319Z,6.00
2023-04-16T02:26:18.000Z,5.90
2023-04-16T02:29:08.512Z,5.55
2023-04-16T02:31:56.868Z,6.03
2023-04-16T02:34:45.023Z,5.40
2023-04-16T02:37:33.179Z,5.00
2023-04-16T02:40:22.579Z,10.05
2023-04-16T02:43:10.652Z,8.82
2023-04-16T02:46:01.078Z,7.45
2023-04-16T02:48:49.188Z,6.57
2023-04-16T02:51:37.244Z,7.50
2023-04-16T02:54:25.781Z,6.10
2023-04-16T02:57:13.790Z,7.75
2023-04-16T03:00:02.324Z,7.05
2023-04-16T03:02:52.001Z,6.87
2023-04-16T03:05:40.559Z,8.35
2023-04-16T03:08:28.603Z,7.13
2023-04-16T03:11:16.829Z,6.85
2023-04-16T03:14:05.556Z,7.55
2023-04-16T03:16:53.597Z,5.37
2023-04-16T03:19:43.154Z,9.32
2023-04-16T03:22:31.557Z,10.40
2023-04-16T03:25:20.339Z,12.52
2023-04-16T03:28:08.472Z,9.63
2023-04-16T03:30:56.800Z,11.93
2023-04-16T03:33:45.028Z,9.40
2023-04-16T03:36:34.517Z,10.25
2023-04-16T03:39:22.792Z,10.20
2023-04-16T03:42:10.988Z,11.82
2023-04-16T03:44:59.399Z,11.43
2023-04-16T03:47:52.340Z,9.10
2023-04-16T03:50:41.264Z,10.50
2023-04-16T03:53:31.038Z,14.02
2023-04-16T03:56:19.348Z,9.05
2023-04-16T03:59:07.608Z,10.93
2023-04-16T04:01:56.492Z,11.00
2023-04-16T04:04:45.165Z,9.60
2023-04-16T04:07:33.222Z,6.18
2023-04-16T04:10:22.663Z,8.98
2023-04-16T04:13:10.825Z,9.10
2023-04-16T04:15:58.977Z,12.20
2023-04-16T04:18:47.007Z,7.53
2023-04-16T04:21:35.226Z,6.10
2023-04-16T04:24:23.423Z,7.95
2023-04-16T04:27:13.259Z,12.43
2023-04-16T04:30:01.370Z,9.68
2023-04-16T04:32:49.736Z,10.95
2023-04-16T04:35:37.718Z,13.25
2023-04-16T04:38:26.706Z,7.20
2023-04-16T04:41:14.903Z,9.97
2023-04-16T04:44:04.443Z,6.00
2023-04-16T04:46:52.527Z,9.02
2023-04-16T04:49:41.088Z,13.18
2023-04-16T04:52:29.297Z,11.20
2023-04-16T04:55:17.378Z,8.70
2023-04-16T04:58:06.194Z,9.27
2023-04-16T05:00:56.008Z,12.90
2023-04-16T05:03:44.583Z,7.63
2023-04-16T05:06:32.721Z,8.85
2023-04-16T05:09:20.985Z,6.13
2023-04-16T05:12:09.170Z,7.18
2023-04-16T05:14:57.274Z,7.30
2023-04-16T05:17:46.833Z,6.68
2023-04-16T05:20:35.050Z,8.15
2023-04-16T05:23:23.396Z,10.17
2023-04-16T05:26:11.459Z,8.50
2023-04-16T05:28:59.464Z,8.98
2023-04-16T05:31:47.644Z,12.35
2023-04-16T05:34:37.186Z,11.30
2023-04-16T05:37:26.094Z,7.87
2023-04-16T05:40:15.107Z,7.20
2023-04-16T05:43:03.189Z,8.27
2023-04-16T05:45:51.334Z,10.00
2023-04-16T05:48:39.840Z,7.18
2023-04-16T05:51:29.458Z,10.23
2023-04-16T05:54:17.897Z,11.75
2023-04-16T05:57:07.074Z,12.70
2023-04-16T05:59:55.166Z,6.45
2023-04-16T06:02:43.473Z,7.95
2023-04-16T06:05:31.968Z,7.27
2023-04-16T06:08:22.225Z,8.85
2023-04-16T06:11:10.603Z,6.30
2023-04-16T06:13:58.798Z,6.35
2023-04-16T06:16:47.401Z,6.50
2023-04-16T06:19:35.678Z,8.03
2023-04-16T06:22:23.846Z,7.88
2023-04-16T06:25:13.492Z,9.63
2023-04-16T06:28:01.976Z,7.35
2023-04-16T06:30:50.011Z,7.47
2023-04-16T06:33:38.031Z,8.53
2023-04-16T06:36:27.546Z,9.38
2023-04-16T06:39:23.999Z,7.97
2023-04-16T06:42:13.589Z,7.85
2023-04-16T06:45:01.838Z,10.82
2023-04-16T06:47:51.128Z,10.83
2023-04-16T06:50:39.519Z,7.95
2023-04-16T06:53:27.765Z,9.07
2023-04-16T06:56:16.057Z,13.73
2023-04-16T06:59:06.299Z,9.43
2023-04-16T07:01:54.530Z,12.07
2023-04-16T07:04:43.016Z,11.13
2023-04-16T07:07:31.177Z,12.60
2023-04-16T07:10:22.420Z,12.68
2023-04-16T07:13:10.636Z,9.13
2023-04-16T07:16:01.588Z,10.13
2023-04-16T07:18:49.763Z,12.98
2023-04-16T07:21:38.181Z,10.10
2023-04-16T07:24:26.565Z,12.60
2023-04-16T07:27:23.245Z,11.50
2023-04-16T07:30:13.080Z,11.93
2023-04-16T07:33:04.154Z,11.90
2023-04-16T07:35:52.261Z,9.10
2023-04-16T07:38:43.089Z,13.52
2023-04-16T07:41:31.175Z,11.80
2023-04-16T07:44:19.187Z,11.27
2023-04-16T07:47:07.448Z,9.00
2023-04-16T07:49:56.824Z,8.80
2023-04-16T07:52:45.408Z,9.15
2023-04-16T07:55:33.519Z,9.07
2023-04-16T07:58:31.060Z,11.07
2023-04-16T08:01:19.221Z,14.40
2023-04-16T08:04:07.525Z,13.45
2023-04-16T08:06:57.034Z,12.25
2023-04-16T08:09:49.834Z,8.07
2023-04-16T08:12:38.684Z,9.70
2023-04-16T08:15:27.871Z,11.15
2023-04-16T08:18:16.140Z,9.20
2023-04-16T08:21:04.341Z,11.55
2023-04-16T08:23:54.434Z,10.07
2023-04-16T08:26:42.615Z,8.63
2023-04-16T08:29:30.641Z,7.47
2023-04-16T08:32:18.821Z,7.80
2023-04-16T08:35:07.538Z,8.73
2023-04-16T08:37:57.897Z,8.35
2023-04-16T08:40:48.719Z,11.00
2023-04-16T08:43:39.326Z,13.75
2023-04-16T08:46:30.444Z,11.32
2023-04-16T08:49:19.398Z,11.77
2023-04-16T08:52:10.520Z,7.93
2023-04-16T08:55:06.002Z,10.30
2023-04-16T08:57:59.427Z,10.13
2023-04-16T09:00:50.464Z,11.25
2023-04-16T09:03:39.537Z,10.10
2023-04-16T09:06:28.572Z,9.23
2023-04-16T09:09:20.090Z,8.10
2023-04-16T09:12:09.868Z,8.00
2023-04-16T09:15:03.146Z,10.13
2023-04-16T09:17:51.275Z,7.68
2023-04-16T09:20:39.679Z,7.80
2023-04-16T09:23:27.790Z,12.97
2023-04-16T09:26:16.461Z,9.30
2023-04-16T09:29:04.599Z,9.30
2023-04-16T09:32:03.256Z,9.93
2023-04-16T09:34:59.452Z,11.52
2023-04-16T09:37:57.005Z,9.07
2023-04-16T09:40:45.227Z,8.52
2023-04-16T09:43:33.310Z,9.10
2023-04-16T09:46:21.667Z,9.52
2023-04-16T09:49:12.607Z,8.52
2023-04-16T09:52:00.919Z,10.73
2023-04-16T09:54:50.167Z,12.68
2023-04-16T09:57:39.240Z,8.25
2023-04-16T10:00:27.633Z,10.68
2023-04-16T10:03:15.920Z,11.40
2023-04-16T10:06:09.405Z,10.47
2023-04-16T10:08:58.089Z,9.73
2023-04-16T10:11:46.445Z,12.27
2023-04-16T10:14:34.895Z,9.50
2023-04-16T10:17:24.000Z,9.85
2023-04-16T10:20:12.894Z,11.70
2023-04-16T10:23:03.314Z,9.20
2023-04-16T10:25:52.625Z,8.50
2023-04-16T10:28:41.898Z,9.00
2023-04-16T10:31:30.962Z,9.55
2023-04-16T10:34:21.804Z,11.97
2023-04-16T10:37:10.342Z,8.43
2023-04-16T10:40:01.353Z,7.05
2023-04-16T10:42:55.710Z,9.50
2023-04-16T10:45:43.941Z,9.85
2023-04-16T10:48:42.338Z,7.90
2023-04-16T10:51:37.816Z,10.63
2023-04-16T10:54:27.518Z,9.60
2023-04-16T10:57:19.348Z,10.52
2023-04-16T11:00:24.074Z,8.30
2023-04-16T11:03:12.711Z,11.23
2023-04-16T11:06:14.643Z,10.70
2023-04-16T11:09:05.702Z,10.93
2023-04-16T11:11:54.328Z,11.18
2023-04-16T11:14:44.543Z,10.00
2023-04-16T11:17:39.697Z,10.83
2023-04-16T11:20:29.509Z,9.20
2023-04-16T11:23:20.521Z,10.35
2023-04-16T11:26:21.548Z,11.02
2023-04-16T11:29:15.620Z,9.85
2023-04-16T11:32:05.229Z,9.57
2023-04-16T11:34:57.724Z,10.57
2023-04-16T11:37:46.802Z,8.20
2023-04-16T11:40:35.923Z,8.77
2023-04-16T11:43:24.070Z,8.85
2023-04-16T11:46:26.414Z,7.83
2023-04-16T11:49:17.811Z,12.93
2023-04-16T11:52:05.958Z,9.07
2023-04-16T11:54:54.697Z,10.95
2023-04-16T11:57:42.870Z,11.15
2023-04-16T12:00:35.963Z,9.17
2023-04-16T12:03:39.552Z,10.60
2023-04-16T12:06:29.430Z,9.95
2023-04-16T12:09:24.259Z,9.48
2023-04-16T12:12:30.519Z,10.40
2023-04-16T12:15:18.988Z,9.80
2023-04-16T12:18:10.562Z,9.52
2023-04-16T12:20:58.841Z,14.55
2023-04-16T12:23:54.397Z,10.68
2023-04-16T12:26:43.861Z,10.88
2023-04-16T12:29:32.403Z,13.70
2023-04-16T12:32:24.541Z,13.68
2023-04-16T12:35:13.490Z,10.98
2023-04-16T12:38:03.591Z,10.65
2023-04-16T12:40:56.577Z,11.20
2023-04-16T12:43:48.210Z,13.40
2023-04-16T12:46:38.210Z,11.15
2023-04-16T12:49:26.346Z,12.00
2023-04-16T12:52:15.077Z,12.30
2023-04-16T12:55:03.808Z,12.27
2023-04-16T12:57:53.783Z,15.47
2023-04-16T13:00:42.450Z,13.45
2023-04-16T13:03:31.151Z,15.75
2023-04-16T13:06:22.177Z,15.60
2023-04-16T13:09:10.699Z,14.77
2023-04-16T13:11:59.124Z,14.17
2023-04-16T13:14:48.576Z,13.27
2023-04-16T13:17:36.936Z,13.18
2023-04-16T13:20:25.198Z,14.85
2023-04-16T13:23:13.692Z,13.27
2023-04-16T13:26:01.707Z,15.97
2023-04-16T13:28:52.499Z,12.80
2023-04-16T13:31:42.031Z,16.63
2023-04-16T13:34:30.170Z,16.17
2023-04-16T13:37:18.344Z,11.40
2023-04-16T13:40:08.312Z,14.00
2023-04-16T13:42:56.539Z,13.85
2023-04-16T13:45:44.772Z,15.13
2023-04-16T13:48:34.256Z,13.45
2023-04-16T13:51:24.620Z,15.00
2023-04-16T13:54:12.856Z,13.53
2023-04-16T13:57:01.542Z,12.57
2023-04-16T13:59:52.051Z,12.43
2023-04-16T14:02:40.870Z,12.43
2023-04-16T14:05:30.416Z,17.95
2023-04-16T14:08:21.175Z,13.90
2023-04-16T14:11:12.304Z,13.38
2023-04-16T14:14:00.741Z,16.60
2023-04-16T14:16:48.925Z,16.42
2023-04-16T14:19:37.184Z,16.10
2023-04-16T14:22:26.970Z,15.83
2023-04-16T14:25:15.199Z,17.38
2023-04-16T14:28:03.362Z,13.13
2023-04-16T14:30:51.410Z,15.93
2023-04-16T14:33:41.171Z,14.77
2023-04-16T14:36:29.428Z,15.13
2023-04-16T14:39:18.913Z,16.27
2023-04-16T14:42:07.173Z,14.45
2023-04-16T14:44:55.647Z,17.75
2023-04-16T14:47:49.652Z,13.85
2023-04-16T14:50:38.849Z,16.70
2023-04-16T14:53:27.150Z,16.45
2023-04-16T14:56:16.673Z,14.73
2023-04-16T14:59:04.749Z,12.77
2023-04-16T15:01:53.663Z,14.65
2023-04-16T15:04:41.822Z,14.10
2023-04-16T15:07:30.055Z,14.43
2023-04-16T15:10:18.199Z,14.38
2023-04-16T15:13:07.781Z,10.73
2023-04-16T15:15:56.329Z,12.18
2023-04-16T15:18:44.453Z,12.10
2023-04-16T15:21:32.882Z,11.35
2023-04-16T15:24:21.405Z,13.80
2023-04-16T15:27:11.742Z,13.93
2023-04-16T15:30:01.828Z,13.95
2023-04-16T15:32:50.080Z,13.37
2023-04-16T15:35:41.421Z,14.35
2023-04-16T15:38:32.624Z,12.60
2023-04-16T15:41:20.886Z,12.43
2023-04-16T15:44:09.215Z,13.32
2023-04-16T15:47:00.581Z,13.40
2023-04-16T15:49:57.729Z,13.27
2023-04-16T15:52:46.699Z,12.10
2023-04-16T15:55:36.275Z,17.63
2023-04-16T15:58:24.486Z,15.43
2023-04-16T16:01:12.869Z,12.73
2023-04-16T16:04:03.011Z,12.55
2023-04-16T16:06:51.750Z,14.52
2023-04-16T16:09:43.097Z,15.18
2023-04-16T16:12:31.403Z,13.00
2023-04-16T16:15:19.524Z,15.93
2023-04-16T16:18:07.715Z,20.45
2023-04-16T16:20:59.132Z,18.13
2023-04-16T16:23:47.647Z,14.63
2023-04-16T16:26:35.852Z,17.27
2023-04-16T16:29:25.438Z,16.30
2023-04-16T16:32:14.080Z,15.00
2023-04-16T16:35:02.039Z,17.95
2023-04-16T16:37:55.403Z,16.75
2023-04-16T16:40:43.727Z,18.30
2023-04-16T16:43:31.729Z,16.93
2023-04-16T16:46:22.869Z,15.90
2023-04-16T16:49:11.536Z,18.17
2023-04-16T16:51:59.798Z,16.67
2023-04-16T16:54:49.821Z,16.90
2023-04-16T16:57:38.482Z,14.37
2023-04-16T17:00:26.762Z,16.88
2023-04-16T17:03:17.939Z,16.73
2023-04-16T17:06:06.354Z,17.27
2023-04-16T17:08:54.601Z,14.40
2023-04-16T17:11:44.022Z,16.70
2023-04-16T17:14:33.522Z,16.95
2023-04-16T17:17:21.793Z,18.52
2023-04-16T17:20:13.276Z,14.02
2023-04-16T17:23:01.273Z,18.63
2023-04-16T17:25:49.263Z,16.70
2023-04-16T17:28:40.642Z,18.60
2023-04-16T17:31:28.838Z,19.77
2023-04-16T17:34:19.486Z,20.02
2023-04-16T17:37:07.921Z,18.58
2023-04-16T17:39:56.022Z,21.43
2023-04-16T17:42:44.038Z,22.02
2023-04-16T17:45:34.055Z,20.77
2023-04-16T17:48:22.420Z,21.52
2023-04-16T17:51:11.673Z,22.27
2023-04-16T17:53:59.855Z,21.30
2023-04-16T17:56:47.846Z,21.42
2023-04-16T17:59:36.042Z,24.77
2023-04-16T18:02:25.842Z,24.98
2023-04-16T18:05:14.124Z,20.35
2023-04-16T18:08:02.128Z,22.90
2023-04-16T18:10:55.109Z,21.70
2023-04-16T18:13:43.585Z,21.90
2023-04-16T18:16:31.577Z,23.05
2023-04-16T18:19:20.983Z,19.00
2023-04-16T18:22:09.169Z,21.17
2023-04-16T18:24:58.094Z,21.83
2023-04-16T18:27:47.542Z,19.27
2023-04-16T18:30:36.141Z,21.02
2023-04-16T18:33:48.854Z,25.27
2023-04-16T18:36:33.728Z,19.97
2023-04-16T18:39:21.943Z,23.33
2023-04-16T18:42:12.571Z,19.63
2023-04-16T18:45:00.763Z,18.00
2023-04-16T18:47:50.221Z,22.98
2023-04-16T18:50:38.371Z,25.07
2023-04-16T18:53:29.144Z,17.92
2023-04-16T18:56:17.152Z,24.25
2023-04-16T18:59:07.172Z,27.90
2023-04-16T19:01:56.133Z,25.08
2023-04-16T19:04:44.162Z,23.50
2023-04-16T19:07:32.751Z,25.27
2023-04-16T19:10:22.151Z,28.58
2023-04-16T19:13:10.352Z,21.88
2023-04-16T19:15:59.520Z,23.02
2023-04-16T19:20:01.646Z,25.53
2023-04-16T19:22:49.889Z,26.40
2023-04-16T19:25:40.619Z,27.77
2023-04-16T19:28:28.730Z,25.58
2023-04-16T19:31:17.556Z,22.60
2023-04-16T19:34:05.849Z,23.83
2023-04-16T19:36:53.944Z,27.10
2023-04-16T19:39:42.106Z,26.15
2023-04-16T19:42:31.693Z,28.88
2023-04-16T19:45:23.419Z,29.15
2023-04-16T19:48:12.198Z,23.83
2023-04-16T19:51:02.825Z,28.85
2023-04-16T19:53:51.776Z,22.77
2023-04-16T19:56:39.829Z,28.60
2023-04-16T19:59:29.573Z,26.13
2023-04-16T20:02:17.685Z,24.03
2023-04-16T20:05:06.391Z,26.33
2023-04-16T20:07:54.504Z,31.85
2023-04-16T20:10:42.642Z,27.98
2023-04-16T20:13:30.746Z,27.95
2023-04-16T20:16:23.535Z,25.87
2023-04-16T20:19:17.056Z,27.52
2023-04-16T20:22:06.519Z,30.58
2023-04-16T20:24:54.855Z,27.70
2023-04-16T20:27:42.889Z,31.98
2023-04-16T20:30:38.613Z,28.37
2023-04-16T20:33:28.087Z,29.58
2023-04-16T20:36:16.208Z,28.60
2023-04-16T20:39:07.649Z,29.45
2023-04-16T20:41:57.466Z,29.33
2023-04-16T20:44:50.570Z,28.77
2023-04-16T20:47:38.674Z,28.13
2023-04-16T20:50:28.837Z,29.02
2023-04-16T20:53:16.882Z,28.70
2023-04-16T20:56:04.991Z,26.63
2023-04-16T20:58:53.909Z,29.53
2023-04-16T21:01:41.934Z,27.75
2023-04-16T21:04:29.941Z,32.20
2023-04-16T21:07:19.473Z,29.95
2023-04-16T21:10:09.033Z,31.40
2023-04-16T21:12:57.478Z,31.53
2023-04-16T21:15:46.189Z,32.15
2023-04-16T21:18:36.637Z,33.47
2023-04-16T21:21:25.870Z,31.92
2023-04-16T21:24:15.446Z,37.80
2023-04-16T21:27:03.462Z,31.13
2023-04-16T21:29:51.878Z,32.92
2023-04-16T21:32:39.908Z,30.80
2023-04-16T21:35:28.501Z,30.35
2023-04-16T21:38:16.572Z,28.65
2023-04-16T21:41:05.951Z,30.57
2023-04-16T21:43:53.994Z,30.73
2023-04-16T21:46:42.065Z,36.17
2023-04-16T21:49:30.443Z,34.90
2023-04-16T21:52:19.125Z,38.03
2023-04-16T21:55:09.548Z,39.90
2023-04-16T21:57:59.484Z,37.22
2023-04-16T22:00:48.055Z,37.38
2023-04-16T22:03:40.851Z,40.13
2023-04-16T22:06:30.181Z,34.58
2023-04-16T22:09:26.622Z,40.90
2023-04-16T22:12:14.620Z,35.55
2023-04-16T22:15:05.009Z,35.13
2023-04-16T22:17:53.192Z,35.83
2023-04-16T22:20:41.241Z,38.92
2023-04-16T22:23:29.297Z,38.50
2023-04-16T22:26:17.330Z,38.50
2023-04-16T22:29:05.516Z,38.75
2023-04-16T22:31:55.067Z,43.83
2023-04-16T22:34:43.279Z,42.38
2023-04-16T22:37:31.283Z,45.53
2023-04-16T22:40:19.381Z,46.42
2023-04-16T22:43:07.357Z,51.15
2023-04-16T22:46:04.554Z,47.45
2023-04-16T22:48:54.657Z,49.35
2023-04-16T22:51:42.643Z,45.30
2023-04-16T22:54:30.770Z,41.08
2023-04-16T22:57:21.133Z,47.20
2023-04-16T23:00:15.389Z,47.38
2023-04-16T23:03:03.671Z,43.45
2023-04-16T23:05:53.153Z,49.20
2023-04-16T23:08:41.314Z,52.17
2023-04-16T23:11:29.278Z,47.15
2023-04-16T23:14:17.285Z,46.58
2023-04-16T23:17:05.352Z,43.08
2023-04-16T23:19:53.261Z,40.90
2023-04-16T23:22:42.654Z,46.05
2023-04-16T23:25:30.986Z,44.35
2023-04-16T23:28:18.974Z,43.08
2023-04-16T23:31:07.612Z,44.35
2023-04-16T23:33:56.350Z,50.80
2023-04-16T23:36:44.488Z,48.58
2023-04-16T23:39:33.886Z,47.22
2023-04-16T23:42:22.406Z,48.88
2023-04-16T23:45:11.756Z,47.05
2023-04-16T23:47:59.856Z,47.30
2023-04-16T23:50:48.281Z,43.33
2023-04-16T23:53:36.502Z,48.30
2023-04-16T23:56:27.493Z,46.15
2023-04-16T23:59:16.769Z,54.80
